Amalga, Utah
Current Conditions -  °F | °C
As of 3:51 PM on Wednesday 17 Dec 2014 (Local Time) from KLGU Reporting Station
Overcast Overcast  
Wind Chill: 40°   Ceiling: 6000
Heat Index: 40°   Visibility: 10mi
Dew Point: 28°   Wind: 0mph
Humidity: 63%   Direction: NA
Pressure: 29.97"   Gusts: NA
Location:  41.8466°N, 111.898°W
Report Text: KLGU 172251Z AUTO 00000KT 10SM OVC060 04/M02 A2997 RMK AO2 SLP159 T00441022
Loading
Personal Weather Stations






























Interactive Weather Map New forecast layout! Learn more

10-Day Weather Forecast

Advertisements
Track Severe Weather on mobile